Time;durP1;ratioP1;P1;durP2;ratioP2;P2;SDS_P1;SDS_P2;PMS_P1;PMS_P2;Temp;Humidity;BMP_temperature;BMP_pressure;BME280_temperature;BME280_humidity;BME280_pressure;Samples;Min_cycle;Max_cycle;Signal;HPM_P1;HPM_P2
2022/12/19 00:02:05;;;;;;;;;;;2.60;86.80;;;;;;5092533;28;19916;-43
2022/12/19 00:04:31;;;;;;;;;;;2.70;86.60;;;;;;5091928;28;19908;-43
2022/12/19 00:07:00;;;;;;;;;;;2.70;86.40;;;;;;5091932;28;19908;-41
2022/12/19 00:09:26;;;;;;;;;;;2.70;86.20;;;;;;5091754;28;19920;-41
2022/12/19 00:11:51;;;;;;;;;;;2.70;86.20;;;;;;5091988;28;19998;-43
2022/12/19 00:14:17;;;;;;;;;;;2.80;86.20;;;;;;5091908;28;19952;-41
2022/12/19 00:16:42;;;;;;;;;;;2.80;86.00;;;;;;5094439;28;19908;-38
2022/12/19 00:19:08;;;;;;;;;;;2.80;85.80;;;;;;5095823;28;19909;-38
2022/12/19 00:21:34;;;;;;;;;;;2.80;85.70;;;;;;5095920;28;20269;-35
2022/12/19 00:24:00;;;;;;;;;;;2.80;86.00;;;;;;5095777;28;19908;-40
2022/12/19 00:26:29;;;;;;;;;;;2.80;86.10;;;;;;5095640;28;19957;-35
2022/12/19 00:28:57;;;;;;;;;;;2.80;86.90;;;;;;5095736;28;19915;-36
2022/12/19 00:31:23;;;;;;;;;;;2.80;87.80;;;;;;5095674;28;19915;-36
2022/12/19 00:33:48;;;;;;;;;;;2.80;88.30;;;;;;5095683;28;20351;-35
2022/12/19 00:36:15;;;;;;;;;;;2.80;88.90;;;;;;5095821;28;19908;-36
2022/12/19 00:38:41;;;;;;;;;;;2.80;89.10;;;;;;5095844;28;20394;-36
2022/12/19 00:41:14;;;;;;;;;;;2.80;89.40;;;;;;5095389;28;19912;-36
2022/12/19 00:43:40;;;;;;;;;;;2.80;90.20;;;;;;5095428;28;19915;-36
2022/12/19 00:46:08;;;;;;;;;;;2.80;90.30;;;;;;5095410;28;20235;-35
2022/12/19 00:48:33;;;;;;;;;;;2.70;90.20;;;;;;5095188;28;19908;-37
2022/12/19 00:51:02;;;;;;;;;;;2.70;90.20;;;;;;5095386;28;19961;-35
2022/12/19 00:53:27;;;;;;;;;;;2.70;90.30;;;;;;5095215;28;19908;-37
2022/12/19 00:55:53;;;;;;;;;;;2.70;90.30;;;;;;5095419;28;19908;-36
2022/12/19 00:58:19;;;;;;;;;;;2.70;90.40;;;;;;5095222;28;19952;-35
2022/12/19 01:00:44;;;;;;;;;;;2.70;90.30;;;;;;5095422;28;19912;-38
2022/12/19 01:03:09;;;;;;;;;;;2.70;90.20;;;;;;5095088;28;20356;-36
2022/12/19 01:05:35;;;;;;;;;;;2.80;90.20;;;;;;5094798;28;19995;-35
2022/12/19 01:08:00;;;;;;;;;;;2.80;90.20;;;;;;5094870;28;19920;-35
2022/12/19 01:10:26;;;;;;;;;;;2.80;90.20;;;;;;5094764;28;19970;-35
2022/12/19 01:12:51;;;;;;;;;;;2.80;90.40;;;;;;5094880;28;19993;-35
2022/12/19 01:15:19;;;;;;;;;;;2.80;90.40;;;;;;5094873;28;19918;-35
2022/12/19 01:17:45;;;;;;;;;;;2.80;90.30;;;;;;5095065;28;19935;-33
2022/12/19 01:20:12;;;;;;;;;;;2.80;90.20;;;;;;5094759;28;19912;-35
2022/12/19 01:22:38;;;;;;;;;;;2.80;90.20;;;;;;5094746;28;19965;-35
2022/12/19 01:25:04;;;;;;;;;;;2.80;90.20;;;;;;5094560;28;20371;-34
2022/12/19 01:27:29;;;;;;;;;;;2.80;90.10;;;;;;5093405;28;19995;-40
2022/12/19 01:29:55;;;;;;;;;;;2.80;90.10;;;;;;5094589;28;19920;-36
2022/12/19 01:32:20;;;;;;;;;;;2.90;90.00;;;;;;5094484;28;19912;-35
2022/12/19 01:34:46;;;;;;;;;;;2.90;89.90;;;;;;5094495;28;19918;-35
2022/12/19 01:37:11;;;;;;;;;;;2.90;90.00;;;;;;5094799;28;19959;-35
2022/12/19 01:39:37;;;;;;;;;;;2.90;90.50;;;;;;5094512;28;20430;-35
2022/12/19 01:42:07;;;;;;;;;;;3.00;91.10;;;;;;5094329;28;20017;-35
2022/12/19 01:44:33;;;;;;;;;;;2.90;91.20;;;;;;5094287;28;20013;-35
2022/12/19 01:46:59;;;;;;;;;;;2.90;91.20;;;;;;5094365;28;19916;-34
2022/12/19 01:49:30;;;;;;;;;;;3.00;91.20;;;;;;5094250;28;19922;-34
2022/12/19 01:51:58;;;;;;;;;;;3.00;91.30;;;;;;5094198;28;19916;-35
2022/12/19 01:54:37;;;;;;;;;;;3.00;91.40;;;;;;5094577;28;19999;-35
2022/12/19 01:57:05;;;;;;;;;;;3.00;91.40;;;;;;5094079;28;19912;-35
2022/12/19 01:59:33;;;;;;;;;;;3.10;91.30;;;;;;5094157;28;19912;-35
2022/12/19 02:02:13;;;;;;;;;;;3.10;91.10;;;;;;5093856;28;19912;-35
2022/12/19 02:04:39;;;;;;;;;;;3.10;91.00;;;;;;5093780;28;19912;-34
2022/12/19 02:07:06;;;;;;;;;;;3.20;90.90;;;;;;5093887;28;20480;-34
2022/12/19 02:09:32;;;;;;;;;;;3.20;90.90;;;;;;5103351;28;19930;-35
2022/12/19 02:11:58;;;;;;;;;;;3.20;90.70;;;;;;5093435;28;19977;-34
2022/12/19 02:14:24;;;;;;;;;;;3.20;90.70;;;;;;5093503;28;19916;-35
2022/12/19 02:17:04;;;;;;;;;;;3.30;90.60;;;;;;5093304;28;19912;-35
2022/12/19 02:19:32;;;;;;;;;;;3.30;90.50;;;;;;5093359;28;19920;-34
2022/12/19 02:22:21;;;;;;;;;;;3.30;90.50;;;;;;5093257;28;19912;-34
2022/12/19 02:24:52;;;;;;;;;;;3.30;90.40;;;;;;5073464;28;19915;-34
2022/12/19 02:27:25;;;;;;;;;;;3.30;90.40;;;;;;5091940;28;19988;-34
2022/12/19 02:29:51;;;;;;;;;;;3.30;90.50;;;;;;5092883;28;19948;-34
2022/12/19 02:32:18;;;;;;;;;;;3.40;90.60;;;;;;5093131;28;19963;-33
2022/12/19 02:34:49;;;;;;;;;;;3.40;90.70;;;;;;5093034;28;19912;-36
2022/12/19 02:37:41;;;;;;;;;;;3.40;90.60;;;;;;5093106;28;19923;-36
2022/12/19 02:40:07;;;;;;;;;;;3.40;90.50;;;;;;5090325;28;19912;-34
2022/12/19 02:42:36;;;;;;;;;;;3.40;90.90;;;;;;5093217;28;19912;-34
2022/12/19 02:45:02;;;;;;;;;;;3.40;90.90;;;;;;5092827;28;19912;-34
2022/12/19 02:47:29;;;;;;;;;;;3.40;90.90;;;;;;5092712;28;19912;-34
2022/12/19 02:49:55;;;;;;;;;;;3.50;90.90;;;;;;5092832;28;19920;-34
2022/12/19 02:52:20;;;;;;;;;;;3.50;91.00;;;;;;5092708;28;19912;-34
2022/12/19 02:54:50;;;;;;;;;;;3.50;90.90;;;;;;5092806;28;20329;-34
2022/12/19 02:57:18;;;;;;;;;;;3.60;90.80;;;;;;5092587;28;19912;-34
2022/12/19 02:59:59;;;;;;;;;;;3.60;90.70;;;;;;5092599;28;20007;-34
2022/12/19 03:02:34;;;;;;;;;;;3.60;90.70;;;;;;5092887;28;19936;-37
2022/12/19 03:05:06;;;;;;;;;;;3.60;90.70;;;;;;5092541;28;19912;-39
2022/12/19 03:07:46;;;;;;;;;;;3.70;90.70;;;;;;5092725;28;19916;-34
2022/12/19 03:10:24;;;;;;;;;;;3.70;90.60;;;;;;5092626;28;20276;-42
2022/12/19 03:12:53;;;;;;;;;;;3.70;90.50;;;;;;5092580;28;20024;-34
2022/12/19 03:15:19;;;;;;;;;;;3.70;90.50;;;;;;5092610;28;19916;-34
2022/12/19 03:17:45;;;;;;;;;;;3.70;90.50;;;;;;5092614;28;19916;-37
2022/12/19 03:20:30;;;;;;;;;;;3.70;90.50;;;;;;5091171;28;20398;-34
2022/12/19 03:22:55;;;;;;;;;;;3.70;90.50;;;;;;5092600;28;20437;-44
2022/12/19 03:25:21;;;;;;;;;;;3.70;90.50;;;;;;5092298;28;19916;-33
2022/12/19 03:27:48;;;;;;;;;;;3.70;90.40;;;;;;5092479;28;20338;-33
2022/12/19 03:30:13;;;;;;;;;;;3.80;90.40;;;;;;5092305;28;19916;-34
2022/12/19 03:32:40;;;;;;;;;;;3.80;90.40;;;;;;5092333;28;19998;-33
2022/12/19 03:35:09;;;;;;;;;;;3.80;90.40;;;;;;5092051;28;19919;-33
2022/12/19 03:37:37;;;;;;;;;;;3.80;90.30;;;;;;5092555;28;19965;-34
2022/12/19 03:40:07;;;;;;;;;;;3.80;90.30;;;;;;5092417;28;19956;-34
2022/12/19 03:45:22;;;;;;;;;;;3.80;90.30;;;;;;5092120;28;20250;-33
2022/12/19 03:47:49;;;;;;;;;;;3.80;90.20;;;;;;5092224;28;20375;-34
2022/12/19 03:50:15;;;;;;;;;;;3.90;90.20;;;;;;5091978;28;19924;-34
2022/12/19 03:52:41;;;;;;;;;;;3.90;90.20;;;;;;5096058;28;19917;-34
2022/12/19 03:55:11;;;;;;;;;;;3.90;90.10;;;;;;5096069;28;19934;-33
2022/12/19 03:57:41;;;;;;;;;;;4.00;90.10;;;;;;5096096;28;19919;-34
2022/12/19 04:00:10;;;;;;;;;;;4.00;90.10;;;;;;5095968;28;19912;-34
2022/12/19 04:02:37;;;;;;;;;;;4.00;90.00;;;;;;5097650;28;19916;-34
2022/12/19 04:05:05;;;;;;;;;;;4.00;90.00;;;;;;5095794;28;20010;-34
2022/12/19 04:07:31;;;;;;;;;;;4.00;89.90;;;;;;5095888;28;19969;-35
2022/12/19 04:09:57;;;;;;;;;;;4.10;90.00;;;;;;5096193;28;20353;-35
2022/12/19 04:12:32;;;;;;;;;;;4.10;89.90;;;;;;5095996;28;19913;-34
2022/12/19 04:14:57;;;;;;;;;;;4.10;89.80;;;;;;5096074;28;19919;-36
2022/12/19 04:17:29;;;;;;;;;;;4.10;89.70;;;;;;5096204;28;19912;-34
2022/12/19 04:20:17;;;;;;;;;;;4.10;89.70;;;;;;5096019;28;19912;-34
2022/12/19 04:23:02;;;;;;;;;;;4.10;89.70;;;;;;5090039;28;19912;-34
2022/12/19 04:25:29;;;;;;;;;;;4.20;89.70;;;;;;5095763;28;19916;-36
2022/12/19 04:27:57;;;;;;;;;;;4.20;89.60;;;;;;5095919;28;19973;-35
2022/12/19 04:30:23;;;;;;;;;;;4.20;89.50;;;;;;5095551;28;20346;-34
2022/12/19 04:32:49;;;;;;;;;;;4.20;89.50;;;;;;5095819;28;20007;-34
2022/12/19 04:35:15;;;;;;;;;;;4.30;89.80;;;;;;5095737;28;19960;-34
2022/12/19 04:37:40;;;;;;;;;;;4.30;89.70;;;;;;5095664;28;19916;-35
2022/12/19 04:40:07;;;;;;;;;;;4.30;89.60;;;;;;5095595;28;20267;-35
2022/12/19 04:42:33;;;;;;;;;;;4.30;89.50;;;;;;5095966;28;19995;-34
2022/12/19 04:44:58;;;;;;;;;;;4.30;89.50;;;;;;5095506;28;20003;-34
2022/12/19 04:47:24;;;;;;;;;;;4.40;89.40;;;;;;5095308;28;19943;-35
2022/12/19 04:49:49;;;;;;;;;;;4.40;89.40;;;;;;5095336;28;20287;-34
2022/12/19 04:52:15;;;;;;;;;;;4.40;89.30;;;;;;5095338;28;20073;-36
2022/12/19 04:54:40;;;;;;;;;;;4.40;89.30;;;;;;5095711;28;20224;-34
2022/12/19 04:57:06;;;;;;;;;;;4.50;89.30;;;;;;5095463;28;19919;-34
2022/12/19 04:59:31;;;;;;;;;;;4.50;89.30;;;;;;5095303;28;20367;-34
2022/12/19 05:01:57;;;;;;;;;;;4.50;89.30;;;;;;5094840;28;19928;-34
2022/12/19 05:04:22;;;;;;;;;;;4.60;89.20;;;;;;5094926;28;19912;-34
2022/12/19 05:06:48;;;;;;;;;;;4.60;89.10;;;;;;5095101;28;19912;-34
2022/12/19 05:09:13;;;;;;;;;;;4.60;89.10;;;;;;5094910;28;19962;-34
2022/12/19 05:11:39;;;;;;;;;;;4.70;89.10;;;;;;5094888;28;19920;-34
2022/12/19 05:14:04;;;;;;;;;;;4.70;89.10;;;;;;5094881;28;19912;-34
2022/12/19 05:16:29;;;;;;;;;;;4.70;89.40;;;;;;5094825;28;19943;-34
2022/12/19 05:18:55;;;;;;;;;;;4.80;89.00;;;;;;5094814;28;19923;-34
2022/12/19 05:21:21;;;;;;;;;;;4.80;89.00;;;;;;5094703;28;20331;-34
2022/12/19 05:23:48;;;;;;;;;;;4.80;88.90;;;;;;5094765;28;20283;-36
2022/12/19 05:26:14;;;;;;;;;;;4.80;89.00;;;;;;5094488;28;19912;-34
2022/12/19 05:28:39;;;;;;;;;;;4.90;88.90;;;;;;5094622;28;19912;-33
2022/12/19 05:31:06;;;;;;;;;;;4.90;88.80;;;;;;5094644;28;19923;-35
2022/12/19 05:33:32;;;;;;;;;;;4.90;88.80;;;;;;5094520;28;19991;-34
2022/12/19 05:35:57;;;;;;;;;;;4.90;88.90;;;;;;5093177;28;20454;-35
2022/12/19 05:38:24;;;;;;;;;;;4.90;88.80;;;;;;5094311;28;19912;-35
2022/12/19 05:40:49;;;;;;;;;;;5.00;88.80;;;;;;5094286;28;20291;-33
2022/12/19 05:43:15;;;;;;;;;;;5.00;88.80;;;;;;5094391;28;19916;-35
2022/12/19 05:45:40;;;;;;;;;;;5.00;88.70;;;;;;5094289;28;20273;-35
2022/12/19 05:48:06;;;;;;;;;;;5.10;88.80;;;;;;5094221;28;19912;-35
2022/12/19 05:50:31;;;;;;;;;;;5.10;88.80;;;;;;5094079;28;19969;-35
2022/12/19 05:52:57;;;;;;;;;;;5.10;88.70;;;;;;5094159;28;19920;-35
2022/12/19 05:55:22;;;;;;;;;;;5.10;88.70;;;;;;5094024;28;20026;-35
2022/12/19 05:57:48;;;;;;;;;;;5.20;88.70;;;;;;5093943;28;19912;-32
2022/12/19 06:00:14;;;;;;;;;;;5.20;88.60;;;;;;5094288;28;19912;-34
2022/12/19 06:02:40;;;;;;;;;;;5.20;88.60;;;;;;5093936;28;20367;-35
2022/12/19 06:05:05;;;;;;;;;;;5.30;88.60;;;;;;5093851;28;19919;-35
2022/12/19 06:07:31;;;;;;;;;;;5.30;88.50;;;;;;5093733;28;19959;-32
2022/12/19 06:09:56;;;;;;;;;;;5.40;88.60;;;;;;5093588;28;20423;-35
2022/12/19 06:12:22;;;;;;;;;;;5.40;88.50;;;;;;5093685;28;19923;-35
2022/12/19 06:14:48;;;;;;;;;;;5.40;88.50;;;;;;5093191;28;19963;-32
2022/12/19 06:17:13;;;;;;;;;;;5.40;88.40;;;;;;5093446;28;19912;-34
2022/12/19 06:19:39;;;;;;;;;;;5.40;88.40;;;;;;5093538;28;19912;-35
2022/12/19 06:22:04;;;;;;;;;;;5.40;88.40;;;;;;5093545;28;19951;-39
2022/12/19 06:24:30;;;;;;;;;;;5.50;88.50;;;;;;5093435;28;20283;-32
2022/12/19 06:26:55;;;;;;;;;;;5.50;88.50;;;;;;5093321;28;20011;-33
2022/12/19 06:29:21;;;;;;;;;;;5.50;88.50;;;;;;5093215;28;19916;-33
2022/12/19 06:31:46;;;;;;;;;;;5.60;88.60;;;;;;5093281;28;19994;-33
2022/12/19 06:34:11;;;;;;;;;;;5.60;88.60;;;;;;5093222;28;20321;-37
2022/12/19 06:36:37;;;;;;;;;;;5.60;88.70;;;;;;5093191;28;19916;-33
2022/12/19 06:39:03;;;;;;;;;;;5.60;88.70;;;;;;5093027;28;20381;-33
2022/12/19 06:44:14;;;;;;;;;;;5.80;89.00;;;;;;5093145;28;20313;-34
2022/12/19 06:46:40;;;;;;;;;;;5.90;89.10;;;;;;5092867;28;20415;-34
2022/12/19 06:49:05;;;;;;;;;;;5.90;89.00;;;;;;5092664;28;20010;-34
2022/12/19 06:51:31;;;;;;;;;;;6.00;89.00;;;;;;5092755;28;19916;-33
2022/12/19 06:53:57;;;;;;;;;;;6.10;89.10;;;;;;5092782;28;19974;-35
2022/12/19 06:56:22;;;;;;;;;;;6.10;89.00;;;;;;5092521;28;20355;-33
2022/12/19 06:58:48;;;;;;;;;;;6.20;89.10;;;;;;5092450;28;20322;-34
2022/12/19 07:01:16;;;;;;;;;;;6.20;89.00;;;;;;5092168;28;19951;-34
2022/12/19 07:03:42;;;;;;;;;;;6.20;89.00;;;;;;5092232;28;20333;-38
2022/12/19 07:06:07;;;;;;;;;;;6.30;89.70;;;;;;5092128;28;19912;-34
2022/12/19 07:08:33;;;;;;;;;;;6.30;89.10;;;;;;5092237;28;19971;-34
2022/12/19 07:10:58;;;;;;;;;;;6.30;89.00;;;;;;5091911;28;20209;-33
2022/12/19 07:13:24;;;;;;;;;;;6.40;89.10;;;;;;5092062;28;19920;-34
2022/12/19 07:15:49;;;;;;;;;;;6.50;89.20;;;;;;5092281;28;19912;-33
2022/12/19 07:18:15;;;;;;;;;;;6.50;89.30;;;;;;5092293;28;20007;-34
2022/12/19 07:20:41;;;;;;;;;;;6.50;89.20;;;;;;5092208;28;19912;-33
2022/12/19 07:23:08;;;;;;;;;;;6.60;89.10;;;;;;5092103;28;20363;-34
2022/12/19 07:25:34;;;;;;;;;;;6.70;89.20;;;;;;5091892;28;20290;-32
2022/12/19 07:27:59;;;;;;;;;;;6.70;89.20;;;;;;5091940;28;19912;-33
2022/12/19 07:30:25;;;;;;;;;;;6.70;89.10;;;;;;5091908;28;19916;-39
2022/12/19 07:32:50;;;;;;;;;;;6.80;89.20;;;;;;5091972;28;19912;-37
2022/12/19 07:35:16;;;;;;;;;;;6.90;89.20;;;;;;5091896;28;19913;-33
2022/12/19 07:37:41;;;;;;;;;;;6.90;89.10;;;;;;5091866;28;20101;-33
2022/12/19 07:40:07;;;;;;;;;;;6.90;89.10;;;;;;5091732;28;19920;-33
2022/12/19 07:42:33;;;;;;;;;;;6.90;89.00;;;;;;5091831;28;19919;-33
2022/12/19 07:44:58;;;;;;;;;;;7.00;89.00;;;;;;5091832;28;20264;-38
2022/12/19 07:47:26;;;;;;;;;;;7.00;89.00;;;;;;5091731;28;19955;-33
2022/12/19 07:49:52;;;;;;;;;;;7.00;89.10;;;;;;5091579;28;20270;-33
2022/12/19 07:52:17;;;;;;;;;;;7.00;89.00;;;;;;5090471;28;19985;-33
2022/12/19 07:54:43;;;;;;;;;;;7.00;89.00;;;;;;5091726;28;19912;-32
2022/12/19 07:57:08;;;;;;;;;;;7.10;89.10;;;;;;5091592;28;19920;-33
2022/12/19 07:59:33;;;;;;;;;;;7.10;89.00;;;;;;5091224;28;19919;-33
2022/12/19 08:01:59;;;;;;;;;;;7.10;89.10;;;;;;5091434;28;19947;-33
2022/12/19 08:04:24;;;;;;;;;;;7.20;89.10;;;;;;5091864;28;19920;-33
2022/12/19 08:06:50;;;;;;;;;;;7.20;89.10;;;;;;5091657;28;19912;-33
2022/12/19 08:09:15;;;;;;;;;;;7.20;89.10;;;;;;5091535;28;19954;-34
2022/12/19 08:11:41;;;;;;;;;;;7.30;89.20;;;;;;5091617;28;20356;-32
2022/12/19 08:14:06;;;;;;;;;;;7.30;89.20;;;;;;5091832;28;20012;-33
2022/12/19 08:16:32;;;;;;;;;;;7.30;89.10;;;;;;5091643;28;20283;-33
2022/12/19 08:18:57;;;;;;;;;;;7.40;89.20;;;;;;5091685;28;19912;-33
2022/12/19 08:21:23;;;;;;;;;;;7.40;89.10;;;;;;5091613;28;19912;-32
2022/12/19 08:23:49;;;;;;;;;;;7.50;89.70;;;;;;5091582;28;20286;-35
2022/12/19 08:26:16;;;;;;;;;;;7.50;89.50;;;;;;5091733;28;19931;-33
2022/12/19 08:28:42;;;;;;;;;;;7.60;89.50;;;;;;5091521;28;19912;-42
2022/12/19 08:31:16;;;;;;;;;;;7.60;89.50;;;;;;5091592;28;19912;-33
2022/12/19 08:33:42;;;;;;;;;;;7.70;89.40;;;;;;5091506;28;19912;-38
2022/12/19 08:36:09;;;;;;;;;;;7.70;89.30;;;;;;5091346;28;19977;-33
2022/12/19 08:38:35;;;;;;;;;;;7.70;89.30;;;;;;5095427;28;19916;-33
2022/12/19 08:41:01;;;;;;;;;;;7.80;89.90;;;;;;5095045;28;19920;-33
2022/12/19 08:43:27;;;;;;;;;;;7.80;89.20;;;;;;5095155;28;19947;-34
2022/12/19 08:45:53;;;;;;;;;;;7.90;89.30;;;;;;5095376;28;19969;-38
2022/12/19 08:48:18;;;;;;;;;;;7.90;89.30;;;;;;5095275;28;19965;-34
2022/12/19 08:50:51;;;;;;;;;;;7.90;89.30;;;;;;5095075;28;20347;-35
2022/12/19 08:53:17;;;;;;;;;;;7.90;89.20;;;;;;5093826;28;19912;-34
2022/12/19 08:55:42;;;;;;;;;;;8.00;89.30;;;;;;5095020;28;20406;-34
2022/12/19 08:58:07;;;;;;;;;;;7.90;89.30;;;;;;5094884;28;19913;-34
2022/12/19 09:00:33;;;;;;;;;;;8.00;89.30;;;;;;5094812;28;19935;-33
2022/12/19 09:02:58;;;;;;;;;;;8.00;89.20;;;;;;5094740;28;19912;-35
2022/12/19 09:05:24;;;;;;;;;;;8.00;89.20;;;;;;5094462;28;19919;-32
2022/12/19 09:07:49;;;;;;;;;;;8.10;89.20;;;;;;5095060;28;19962;-35
2022/12/19 09:10:15;;;;;;;;;;;8.00;89.20;;;;;;5094883;28;19931;-33
2022/12/19 09:12:40;;;;;;;;;;;8.10;89.20;;;;;;5095013;28;19912;-33
2022/12/19 09:15:06;;;;;;;;;;;8.10;89.20;;;;;;5094928;28;20003;-35
2022/12/19 09:17:31;;;;;;;;;;;8.10;89.20;;;;;;5094998;28;19912;-34
2022/12/19 09:19:57;;;;;;;;;;;8.10;89.20;;;;;;5094826;28;20383;-34
2022/12/19 09:22:22;;;;;;;;;;;8.10;89.20;;;;;;5094796;28;19981;-33
2022/12/19 09:24:48;;;;;;;;;;;8.20;89.20;;;;;;5093439;28;20014;-36
2022/12/19 09:27:13;;;;;;;;;;;8.20;89.20;;;;;;5094823;28;20354;-33
2022/12/19 09:29:39;;;;;;;;;;;8.20;89.30;;;;;;5094605;28;19916;-34
2022/12/19 09:32:04;;;;;;;;;;;8.20;89.30;;;;;;5093287;28;19916;-33
2022/12/19 09:34:30;;;;;;;;;;;8.10;89.30;;;;;;5094571;28;19969;-32
2022/12/19 09:36:55;;;;;;;;;;;8.20;89.30;;;;;;5094746;28;19919;-32
2022/12/19 09:39:21;;;;;;;;;;;8.20;89.30;;;;;;5093125;28;19966;-32
2022/12/19 09:41:50;;;;;;;;;;;8.20;89.40;;;;;;5094467;28;19918;-33
2022/12/19 09:44:31;;;;;;;;;;;8.20;89.40;;;;;;5094246;28;19916;-33
2022/12/19 09:46:56;;;;;;;;;;;8.20;89.30;;;;;;5094308;28;19912;-33
2022/12/19 09:49:48;;;;;;;;;;;8.20;89.30;;;;;;5093030;28;19923;-32
2022/12/19 09:52:24;;;;;;;;;;;8.20;89.30;;;;;;5091821;28;19916;-32
2022/12/19 09:55:01;;;;;;;;;;;8.30;89.40;;;;;;5094106;28;19919;-33
2022/12/19 09:57:27;;;;;;;;;;;8.30;89.40;;;;;;5093963;28;20028;-33
2022/12/19 09:59:55;;;;;;;;;;;8.30;89.40;;;;;;5093975;28;19912;-33
2022/12/19 10:02:24;;;;;;;;;;;8.30;89.40;;;;;;5094033;28;19916;-34
2022/12/19 10:04:51;;;;;;;;;;;8.30;89.40;;;;;;5093997;28;19935;-34
2022/12/19 10:07:17;;;;;;;;;;;8.30;89.40;;;;;;5094118;28;20396;-33
2022/12/19 10:09:43;;;;;;;;;;;8.30;89.40;;;;;;5093617;28;19920;-34
2022/12/19 10:12:11;;;;;;;;;;;8.30;89.40;;;;;;5093824;28;20399;-34
2022/12/19 10:14:57;;;;;;;;;;;8.30;89.40;;;;;;5093340;28;20674;-34
2022/12/19 10:17:34;;;;;;;;;;;8.40;89.40;;;;;;5093699;28;20375;-33
2022/12/19 10:20:12;;;;;;;;;;;8.40;89.40;;;;;;5093761;28;19913;-34
2022/12/19 10:22:58;;;;;;;;;;;8.40;89.40;;;;;;5093881;28;19916;-34
2022/12/19 10:25:33;;;;;;;;;;;8.50;89.50;;;;;;5093031;28;19912;-33
2022/12/19 10:28:11;;;;;;;;;;;8.40;89.40;;;;;;5093893;28;19912;-33
2022/12/19 10:30:42;;;;;;;;;;;8.40;89.40;;;;;;5093544;28;19925;-33
2022/12/19 10:33:10;;;;;;;;;;;8.50;89.50;;;;;;5093562;28;19916;-35
2022/12/19 10:35:41;;;;;;;;;;;8.50;89.50;;;;;;5093322;28;19916;-33
2022/12/19 10:38:25;;;;;;;;;;;8.50;89.60;;;;;;5093475;28;19916;-33
2022/12/19 10:41:12;;;;;;;;;;;8.50;89.60;;;;;;5093154;28;19912;-34
2022/12/19 10:43:50;;;;;;;;;;;8.50;89.60;;;;;;5093056;28;19908;-35
2022/12/19 10:46:24;;;;;;;;;;;8.60;89.60;;;;;;5093324;28;19916;-35
2022/12/19 10:48:50;;;;;;;;;;;8.60;89.60;;;;;;5092957;28;19915;-34
2022/12/19 10:51:20;;;;;;;;;;;8.60;89.60;;;;;;5093165;28;19915;-32
2022/12/19 10:53:52;;;;;;;;;;;8.60;89.50;;;;;;5093031;28;19908;-34
2022/12/19 10:56:20;;;;;;;;;;;8.70;89.60;;;;;;5092987;28;19915;-34
2022/12/19 10:58:49;;;;;;;;;;;8.70;89.60;;;;;;5093084;28;20286;-33
2022/12/19 11:01:28;;;;;;;;;;;8.70;89.60;;;;;;5092772;28;20397;-34
2022/12/19 11:04:09;;;;;;;;;;;8.70;89.60;;;;;;5093098;28;20360;-34
2022/12/19 11:06:40;;;;;;;;;;;8.80;89.60;;;;;;5092977;28;20265;-34
2022/12/19 11:09:14;;;;;;;;;;;8.80;89.60;;;;;;5092467;28;20027;-36
2022/12/19 11:11:40;;;;;;;;;;;8.80;89.60;;;;;;5092448;28;19920;-34
2022/12/19 11:14:18;;;;;;;;;;;8.90;89.70;;;;;;5092506;28;19912;-32
2022/12/19 11:16:43;;;;;;;;;;;8.90;89.60;;;;;;5092601;28;19912;-34
2022/12/19 11:19:19;;;;;;;;;;;8.90;89.50;;;;;;5092829;28;19920;-37
2022/12/19 11:21:44;;;;;;;;;;;8.90;89.50;;;;;;5092802;28;20408;-33
2022/12/19 11:24:36;;;;;;;;;;;8.90;89.50;;;;;;5092480;28;19912;-35
2022/12/19 11:27:01;;;;;;;;;;;8.90;89.50;;;;;;5090337;28;19912;-33
2022/12/19 11:29:27;;;;;;;;;;;9.00;89.60;;;;;;5092181;28;20295;-34
2022/12/19 11:31:58;;;;;;;;;;;9.00;89.50;;;;;;5092530;28;20380;-34
2022/12/19 11:34:25;;;;;;;;;;;8.90;89.50;;;;;;5092655;28;19912;-34
2022/12/19 11:36:50;;;;;;;;;;;9.00;89.50;;;;;;5092693;28;19942;-34
2022/12/19 11:39:30;;;;;;;;;;;9.00;89.50;;;;;;5092282;28;20375;-34
2022/12/19 11:42:16;;;;;;;;;;;9.00;89.50;;;;;;5092335;28;19961;-34
2022/12/19 11:44:47;;;;;;;;;;;9.00;89.50;;;;;;5091684;28;20461;-33
2022/12/19 11:47:31;;;;;;;;;;;9.10;89.60;;;;;;5092117;28;19912;-34
2022/12/19 11:50:00;;;;;;;;;;;9.00;89.50;;;;;;5092015;28;20395;-34
2022/12/19 11:52:25;;;;;;;;;;;9.10;89.60;;;;;;5092091;28;20011;-33
2022/12/19 11:54:56;;;;;;;;;;;9.10;89.60;;;;;;5092181;28;20451;-35
2022/12/19 11:57:21;;;;;;;;;;;9.10;89.60;;;;;;5092326;28;20320;-34
2022/12/19 11:59:47;;;;;;;;;;;9.10;89.50;;;;;;5092096;28;19912;-35
2022/12/19 12:02:39;;;;;;;;;;;9.20;89.60;;;;;;5092247;28;20427;-33
2022/12/19 12:05:19;;;;;;;;;;;9.20;89.50;;;;;;5091942;28;20363;-33
2022/12/19 12:07:52;;;;;;;;;;;9.20;89.50;;;;;;5092031;28;19948;-34
2022/12/19 12:10:19;;;;;;;;;;;9.30;89.50;;;;;;5091782;28;20033;-33
2022/12/19 12:13:03;;;;;;;;;;;9.30;89.50;;;;;;5094586;28;19955;-34
2022/12/19 12:15:40;;;;;;;;;;;9.40;89.50;;;;;;5096177;28;20324;-34
2022/12/19 12:18:21;;;;;;;;;;;9.40;89.50;;;;;;5095901;28;19952;-33
2022/12/19 12:20:49;;;;;;;;;;;9.40;89.40;;;;;;5096529;28;19912;-34
2022/12/19 12:23:20;;;;;;;;;;;9.40;89.40;;;;;;5096098;28;19946;-34
2022/12/19 12:26:02;;;;;;;;;;;9.50;89.40;;;;;;5095716;28;19965;-34
2022/12/19 12:28:47;;;;;;;;;;;9.50;89.40;;;;;;5095658;28;20372;-34
2022/12/19 12:31:26;;;;;;;;;;;9.50;89.40;;;;;;5095550;28;19923;-34
2022/12/19 12:33:57;;;;;;;;;;;9.60;89.40;;;;;;5096077;28;20350;-34
2022/12/19 12:36:34;;;;;;;;;;;9.60;89.30;;;;;;5095555;28;20041;-34
2022/12/19 12:39:02;;;;;;;;;;;9.60;89.30;;;;;;5095630;28;20007;-34
2022/12/19 12:44:27;;;;;;;;;;;9.70;89.30;;;;;;5095603;28;19977;-34
2022/12/19 12:47:01;;;;;;;;;;;9.70;89.30;;;;;;5095187;28;19912;-35
2022/12/19 12:49:26;;;;;;;;;;;9.70;89.20;;;;;;5095157;28;19999;-34
2022/12/19 12:51:52;;;;;;;;;;;9.70;89.10;;;;;;5095190;28;20012;-34
2022/12/19 12:54:18;;;;;;;;;;;9.70;89.10;;;;;;5095130;28;19912;-35
2022/12/19 12:56:44;;;;;;;;;;;9.70;89.10;;;;;;5095036;28;19996;-34
2022/12/19 12:59:20;;;;;;;;;;;9.80;89.10;;;;;;5095101;28;19916;-34
2022/12/19 13:02:09;;;;;;;;;;;9.80;89.10;;;;;;5094994;28;19912;-34
2022/12/19 13:04:40;;;;;;;;;;;9.80;89.10;;;;;;5085077;28;20011;-34
2022/12/19 13:07:05;;;;;;;;;;;9.80;89.00;;;;;;5095078;28;20337;-34
2022/12/19 13:09:35;;;;;;;;;;;9.90;89.00;;;;;;5094633;28;19920;-34
2022/12/19 13:15:21;;;;;;;;;;;9.90;88.90;;;;;;5094698;28;19980;-34
2022/12/19 13:17:46;;;;;;;;;;;10.00;88.90;;;;;;5094651;28;19912;-34
2022/12/19 13:20:12;;;;;;;;;;;10.00;88.70;;;;;;5094560;28;19912;-34
2022/12/19 13:22:39;;;;;;;;;;;10.10;88.70;;;;;;5094523;28;19961;-34
2022/12/19 13:25:23;;;;;;;;;;;10.10;88.60;;;;;;5094947;28;19948;-36
2022/12/19 13:27:48;;;;;;;;;;;10.10;88.50;;;;;;5094576;28;20053;-35
2022/12/19 13:30:16;;;;;;;;;;;10.10;88.50;;;;;;5094737;28;20015;-34
2022/12/19 13:32:41;;;;;;;;;;;10.10;88.50;;;;;;5094752;28;19945;-33
2022/12/19 13:35:10;;;;;;;;;;;10.10;89.00;;;;;;5094442;28;19916;-35
2022/12/19 13:37:41;;;;;;;;;;;10.20;88.50;;;;;;5094407;28;19942;-36
2022/12/19 13:40:25;;;;;;;;;;;10.10;88.40;;;;;;5094672;28;19916;-46
2022/12/19 13:45:54;;;;;;;;;;;10.20;88.40;;;;;;5094339;28;19920;-33
2022/12/19 13:48:31;;;;;;;;;;;10.20;88.40;;;;;;5094204;28;20053;-34
2022/12/19 13:50:58;;;;;;;;;;;10.20;88.40;;;;;;5094220;28;20009;-34
2022/12/19 13:53:26;;;;;;;;;;;10.20;88.30;;;;;;5094160;28;19912;-33
2022/12/19 13:55:54;;;;;;;;;;;10.20;88.30;;;;;;5094383;28;19919;-34
2022/12/19 13:58:21;;;;;;;;;;;10.20;88.30;;;;;;5094156;28;20302;-33
2022/12/19 14:00:47;;;;;;;;;;;10.20;88.30;;;;;;5094153;28;19912;-35
2022/12/19 14:03:15;;;;;;;;;;;10.20;88.30;;;;;;5094014;28;20353;-34
2022/12/19 14:05:40;;;;;;;;;;;10.20;88.30;;;;;;5093848;28;19912;-35
2022/12/19 14:08:06;;;;;;;;;;;10.20;88.30;;;;;;5093847;28;19999;-33
2022/12/19 14:10:38;;;;;;;;;;;10.10;88.20;;;;;;5093576;28;19969;-35
2022/12/19 14:15:50;;;;;;;;;;;10.10;88.20;;;;;;5094032;28;20295;-33
2022/12/19 14:18:15;;;;;;;;;;;10.10;88.30;;;;;;5093624;28;19912;-34
2022/12/19 14:20:41;;;;;;;;;;;10.10;88.20;;;;;;5092347;28;19962;-34
2022/12/19 14:23:06;;;;;;;;;;;10.10;88.20;;;;;;5093847;28;19912;-35
2022/12/19 14:25:41;;;;;;;;;;;10.10;88.20;;;;;;5093526;28;19955;-34
2022/12/19 14:28:09;;;;;;;;;;;10.00;88.20;;;;;;5093943;28;19958;-34
2022/12/19 14:30:37;;;;;;;;;;;10.00;88.20;;;;;;5093277;28;19962;-33
2022/12/19 14:33:04;;;;;;;;;;;10.00;88.20;;;;;;5093649;28;19919;-34
2022/12/19 14:35:32;;;;;;;;;;;10.00;88.20;;;;;;5092777;28;19912;-34
2022/12/19 14:38:00;;;;;;;;;;;10.00;88.20;;;;;;5093277;28;19957;-35
2022/12/19 14:40:26;;;;;;;;;;;10.00;88.20;;;;;;5091893;28;19973;-34
2022/12/19 14:45:41;;;;;;;;;;;10.00;88.20;;;;;;5093264;28;19919;-32
2022/12/19 14:48:26;;;;;;;;;;;10.00;88.10;;;;;;5093214;28;20061;-34
2022/12/19 14:51:01;;;;;;;;;;;10.00;88.10;;;;;;5093026;28;19941;-35
2022/12/19 14:53:26;;;;;;;;;;;10.00;88.10;;;;;;5092941;28;19935;-35
2022/12/19 14:56:02;;;;;;;;;;;10.00;88.20;;;;;;5092913;28;19912;-33
2022/12/19 14:58:30;;;;;;;;;;;10.00;88.10;;;;;;5092891;28;19912;-33